This is the latest recevied weather packets stored in our database for station/object TG8AKV-17. If no packets are shown the sender has not sent any weather packets the latest 10 day(s).
| Time | Temp. | Humidity | Pressure | Rain* | Wind** | Luminosity | Snow |
|---|---|---|---|---|---|---|---|
| 1778113614 | 18.33° C | 84% | 1015 hPa | 0.51 mm | - | - | - |
| 1778113013 | 17.78° C | 85% | 1015 hPa | 0.76 mm | - | - | - |
| 1778112413 | 17.22° C | 88% | 1015 hPa | 0.51 mm | - | - | - |
| 1778111812 | 16.11° C | 94% | 1015 hPa | 0.51 mm | - | - | - |
| 1778111212 | 16.11° C | 93% | 1015 hPa | 0.51 mm | - | - | - |
| 1778110611 | 16.11° C | 92% | 1015 hPa | 0.76 mm | - | - | - |
| 1778110010 | 16.11° C | 91% | 1014 hPa | 0.76 mm | - | - | - |
| 1778109410 | 16.11° C | 89% | 1014 hPa | 0.51 mm | - | - | - |
| 1778108809 | 16.11° C | 89% | 1014 hPa | 0.51 mm | - | - | - |
| 1778108209 | 16.11° C | 89% | 1014 hPa | 0 mm | - | - | - |
| 1778107608 | 21.11° C | 79% | 1014 hPa | 0 mm | - | - | - |
| 1778107007 | 21.11° C | 79% | 1014 hPa | 0 mm | - | - | - |
| 1778106407 | 20.56° C | 83% | 1014 hPa | 0 mm | - | - | - |
| 1778105806 | 20.56° C | 77% | 1014 hPa | 0 mm | - | - | - |
| 1778105205 | 18.33° C | 87% | 1014 hPa | 0 mm | - | - | - |
| 1778104605 | 18.33° C | 85% | 1014 hPa | 0 mm | - | - | - |
| 1778104004 | 18.33° C | 86% | 1014 hPa | 0 mm | - | - | - |
| 1778103404 | 18.33° C | 88% | 1014 hPa | 0 mm | - | - | - |
| 1778102803 | 18.33° C | 90% | 1014 hPa | 0 mm | - | - | - |
| 1778102202 | 18.33° C | 90% | 1014 hPa | 0 mm | - | - | - |
| 1778101231 | 23.33° C | 70% | 1014 hPa | 0 mm | - | - | - |
| 1778100631 | 23.33° C | 71% | 1014 hPa | 0 mm | - | - | - |
| 1778100030 | 22.78° C | 73% | 1014 hPa | 0 mm | - | - | - |
| 1778099430 | 22.22° C | 75% | 1014 hPa | 0 mm | - | - | - |
| 1778098820 | 20.56° C | 79% | 1014 hPa | 0 mm | - | - | - |
* Rain latest hour (hover to see other rain measurements)
** Current wind speed in m/s (hover to see current wind gust speed)